Flight Track Log - Related Links

Times and Time Zones

All times are in EDT time to prevent confusion due to time zone crossing. See the N45NS flight status page for this flight to view local times or setup timezone preferences in your user account.

Time Position Orientation Groundspeed Altitude Reporting Facility
EDT Latitude Longitude Course Direction KTS MPH feet Rate Location/Type
Thu 02:59:41 PM 29.9850 -81.2906 42° Northeast 264 304 2,600  Level Jacksonville Center
Thu 03:00:42 PM 30.0533 -81.2417 32° Northeast 281 323 6,100 3,124 Climbing Jacksonville Center
Thu 03:01:42 PM 30.1258 -81.1969 28° Northeast 295 339 8,900 2,951 Climbing Jacksonville Center
Thu 03:01:43 PM 30.1278 -81.1947 45° Northeast 299 344 9,100 2,300 Climbing Jacksonville Center
Thu 03:02:42 PM 30.2078 -81.2342 337° Northwest 321 369 11,200 2,361 Climbing Jacksonville Center
Thu 03:02:44 PM 30.2078 -81.2342 337° Northwest 306 352 11,500 2,500 Climbing Jacksonville Center
Thu 03:03:42 PM 30.2731 -81.2836 327° Northwest 303 349 13,700 1,881 Climbing Jacksonville Center
Thu 03:04:42 PM 30.3469 -81.3400 327° Northwest 321 369 15,200 1,850 Climbing Jacksonville Center
Thu 03:05:42 PM 30.4247 -81.3989 327° Northwest 321 369 17,400 1,400 Climbing Jacksonville Center
Thu 03:06:42 PM 30.5047 -81.4556 329° Northwest 326 375 18,000 300 Climbing Jacksonville Center
Thu 03:07:42 PM 30.5847 -81.5172 326° Northwest 357 411 18,000 800 Level Jacksonville Center
Thu 03:08:42 PM 30.6731 -81.5811 328° Northwest 375 432 19,600 1,900 Climbing Jacksonville Center
Thu 03:09:42 PM 30.7714 -81.5894 356° North 361 415 21,800 1,900 Climbing Jacksonville Center
Thu 03:10:42 PM 30.8694 -81.5928 358° North 343 395 23,400 1,200 Climbing Jacksonville Center
Thu 03:11:42 PM 30.9739 -81.5939 359° North 355 409 24,200 1,000 Climbing Jacksonville Center
Thu 03:12:42 PM 31.0825 -81.5972 358° North 369 425 25,400 1,200 Climbing Jacksonville Center
Thu 03:13:42 PM 31.1933 -81.6031 357° North 388 447 26,600 1,350 Climbing Jacksonville Center
Thu 03:14:42 PM 31.2997 -81.6064 358° North 388 447 28,100 1,600 Climbing Jacksonville Center
Thu 03:15:42 PM 31.4147 -81.6072 360° North 375 432 29,800 1,650 Climbing Jacksonville Center
Thu 03:16:42 PM 31.5169 -81.6108 358° North 363 418 31,400 1,600 Climbing Jacksonville Center
Thu 03:17:42 PM 31.6108 -81.6119 359° North 364 419 33,000 1,700 Climbing Jacksonville Center
Thu 03:18:42 PM 31.7175 -81.6178 357° North 349 402 34,800 1,550 Climbing Jacksonville Center
Thu 03:19:42 PM 31.8053 -81.6189 359° North 343 395 36,100 1,600 Climbing Jacksonville Center
Thu 03:20:42 PM 31.9075 -81.6225 358° North 343 395 38,000 1,600 Climbing Jacksonville Center
Thu 03:21:42 PM 31.9994 -81.6261 358° North 336 387 39,300 1,300 Climbing Jacksonville Center
Thu 03:22:42 PM 32.0808 -81.6275 359° North 326 375 40,600 850 Climbing Jacksonville Center
Thu 03:23:42 PM 32.1833 -81.6308 358° North 327 376 41,000 200 Climbing Jacksonville Center
Thu 03:24:42 PM 32.2814 -81.6319 359° North 341 392 41,000  Level Jacksonville Center
Thu 03:25:42 PM 32.3753 -81.6331 359° North 366 421 41,000  Level Jacksonville Center
Thu 03:26:42 PM 32.4944 -81.6389 358° North 377 434 41,000  Level Jacksonville Center
Thu 03:27:42 PM 32.6008 -81.6400 359° North 387 445 41,000  Level Jacksonville Center
Thu 03:28:42 PM 32.7094 -81.6433 359° North 382 440 41,000  Level Jacksonville Center
Thu 03:29:42 PM 32.8181 -81.6467 359° North 382 440 41,000  Level Jacksonville Center
Thu 03:30:42 PM 32.9267 -81.6478 360° North 388 447 41,000  Level Jacksonville Center
Thu 03:31:42 PM 33.0331 -81.6536 357° North 382 440 41,000  Level Jacksonville Center
Thu 03:32:42 PM 33.1269 -81.6547 359° North 382 440 41,000  Level Jacksonville Center
Thu 03:33:42 PM 33.2461 -81.6533 North 388 447 41,000  Level Jacksonville Center
Thu 03:34:42 PM 33.3503 -81.6567 358° North 381 438 41,000  Level Jacksonville Center
Thu 03:36:33 PM 33.5481 -81.6633 358° North 390 449 41,000  Level Atlanta Center
Thu 03:37:33 PM 33.6564 -81.6653 359° North 383 441 41,000  Level Atlanta Center
Thu 03:38:33 PM 33.7608 -81.6675 359° North 383 441 41,000  Level Atlanta Center
Thu 03:39:33 PM 33.8592 -81.6722 358° North 383 441 41,000  Level Atlanta Center
Thu 03:40:33 PM 33.9636 -81.6744 359° North 383 441 41,000  Level Atlanta Center
Thu 03:41:33 PM 34.0742 -81.6764 359° North 388 447 41,000  Level Atlanta Center
Thu 03:42:33 PM 34.1850 -81.6833 357° North 388 447 41,000  Level Atlanta Center
Thu 03:43:33 PM 34.2914 -81.6853 359° North 388 447 41,000  Level Atlanta Center
Thu 03:44:33 PM 34.4000 -81.6850 360° North 388 447 41,000  Level Atlanta Center
Thu 03:45:33 PM 34.5106 -81.6919 357° North 388 447 41,000 50 Level Atlanta Center
Thu 03:46:33 PM 34.6192 -81.6939 359° North 388 447 41,100  Climbing Atlanta Center
Thu 03:47:33 PM 34.7278 -81.6958 359° North 388 447 41,000 -50 Descending Atlanta Center
Thu 03:48:33 PM 34.8383 -81.6978 359° North 388 447 41,000  Level Atlanta Center
Thu 03:49:33 PM 34.9469 -81.7050 357° North 388 447 41,000  Level Atlanta Center
Thu 03:50:33 PM 35.0578 -81.7069 359° North 388 447 41,000  Level Atlanta Center
Thu 03:51:33 PM 35.1664 -81.7114 358° North 388 447 41,000  Level Atlanta Center
Thu 03:52:33 PM 35.2894 -81.7156 358° North 388 447 41,000  Level Atlanta Center
Thu 03:53:33 PM 35.3981 -81.7178 359° North 388 447 41,000  Level Atlanta Center
Thu 03:54:33 PM 35.5086 -81.7197 359° North 388 447 41,000  Level Atlanta Center
Thu 03:55:33 PM 35.6192 -81.7217 359° North 388 447 41,000  Level Atlanta Center
Thu 03:56:33 PM 35.7297 -81.7236 359° North 388 447 41,000  Level Atlanta Center
Thu 03:57:33 PM 35.8406 -81.7281 358° North 393 452 41,000  Level Atlanta Center
Thu 03:58:33 PM 35.9511 -81.7328 358° North 393 452 41,000  Level Atlanta Center
Thu 03:59:33 PM 36.0639 -81.7347 359° North 393 452 41,000  Level Atlanta Center
Thu 04:00:33 PM 36.1744 -81.7392 358° North 398 458 41,000  Level Atlanta Center
Thu 04:01:33 PM 36.2869 -81.7411 359° North 403 464 41,000  Level Atlanta Center
Thu 04:02:33 PM 36.3978 -81.7458 358° North 403 464 41,000  Level Atlanta Center
Thu 04:03:33 PM 36.5103 -81.7478 359° North 403 464 41,000  Level Atlanta Center
Thu 04:05:59 PM 36.7772 -81.7567 358° North 407 468 41,000  Level Indianapolis Center
Thu 04:07:01 PM 36.8894 -81.7597 359° North 406 467 41,000  Level Indianapolis Center
Thu 04:08:03 PM 37.0022 -81.7633 359° North 406 467 41,000  Level Indianapolis Center
Thu 04:09:05 PM 37.1342 -81.7672 359° North 406 467 41,000  Level Indianapolis Center
Thu 04:10:07 PM 37.2472 -81.7708 359° North 406 467 41,000 -194 Level Indianapolis Center
Thu 04:11:09 PM 37.3603 -81.7756 358° North 406 467 40,600 -919 Descending Indianapolis Center
Thu 04:12:11 PM 37.4742 -81.7786 359° North 408 470 39,100 -1,258 Descending Indianapolis Center
Thu 04:13:13 PM 37.5861 -81.7825 358° North 403 464 38,000 -532 Descending Indianapolis Center
Thu 04:14:15 PM 37.7211 -81.7864 359° North 412 474 38,000  Level Indianapolis Center
Thu 04:15:17 PM 37.8378 -81.7900 359° North 418 481 38,000  Level Indianapolis Center
Thu 04:16:19 PM 37.9431 -81.7936 358° North 426 490 38,000 -823 Level Indianapolis Center
Thu 04:17:21 PM 38.0886 -81.7983 359° North 433 498 36,300 -1,016 Descending Indianapolis Center
Thu 04:18:23 PM 38.2086 -81.8008 359° North 431 496 35,900 -919 Descending Indianapolis Center
Thu 04:19:25 PM 38.3339 -81.8056 358° North 442 509 34,400 -1,500 Descending Indianapolis Center
Thu 04:20:27 PM 38.4578 -81.8103 358° North 443 510 32,800 -1,500 Descending Indianapolis Center
Thu 04:21:29 PM 38.5803 -81.8136 359° North 435 501 31,300 -1,355 Descending Indianapolis Center
Thu 04:22:31 PM 38.7036 -81.8178 358° North 435 501 30,000 -629 Descending Indianapolis Center
Thu 04:23:33 PM 38.8289 -81.8206 359° North 441 507 30,000 -48 Level Indianapolis Center
Thu 04:24:35 PM 38.9511 -81.8247 358° North 435 501 29,900 -823 Descending Indianapolis Center
Thu 04:25:37 PM 39.0783 -81.8297 358° North 451 519 28,300 -1,694 Descending Indianapolis Center
Thu 04:26:39 PM 39.2372 -81.8331 359° North 472 543 26,400 -1,597 Descending Indianapolis Center
Thu 04:27:41 PM 39.3644 -81.8386 358° North 458 527 25,000 -677 Descending Indianapolis Center
Thu 04:28:43 PM 39.4869 -81.8428 358° North 441 507 25,000 -48 Level Indianapolis Center
Thu 04:29:45 PM 39.6061 -81.8472 358° North 430 495 24,900 -919 Descending Indianapolis Center
Thu 04:30:47 PM 39.7344 -81.8503 359° North 434 499 23,100 -1,839 Descending Indianapolis Center
Thu 04:31:49 PM 39.8494 -81.8539 359° North 417 480 21,100 -1,887 Descending Indianapolis Center
Thu 04:32:51 PM 39.9650 -81.8572 359° North 417 480 19,200 -1,984 Descending Indianapolis Center
Thu 04:33:53 PM 40.0786 -81.8617 358° North 410 472 17,000 -2,226 Descending Indianapolis Center
Thu 04:34:55 PM 40.2164 -81.8664 359° North 414 476 14,600 -2,129 Descending Indianapolis Center
Thu 04:35:57 PM 40.3286 -81.8697 359° North 400 460 12,600 -1,935 Descending Indianapolis Center
Thu 04:36:59 PM 40.4289 -81.8733 358° North 358 412 10,600 -1,887 Descending Indianapolis Center
Thu 04:38:01 PM 40.5161 -81.8753 359° North 318 366 8,700 -2,032 Descending Indianapolis Center
Thu 04:39:03 PM 40.6003 -81.8783 358° North 304 350 6,400 -2,379 Descending Indianapolis Center
Thu 04:39:57 PM 40.6722 -81.8811 358° North 304 350 4,100 -1,707 Descending Cleveland Center
Thu 04:40:59 PM 40.7719 -81.8839 359° North 305 351 3,100 -484 Descending Cleveland Center
Thu 04:42:01 PM 40.8525 -81.8894 357° North 294 338 3,100  Level Cleveland Center
Thu 04:43:03 PM 40.9025 -81.8142 49° Northeast 280 322 3,100  Level Cleveland Center
Thu 04:44:06 PM 40.9339 -81.7256 65° Northeast 277 319 3,100 -48 Level Cleveland Center
Thu 04:45:08 PM 40.9164 -81.6511 107° East 246 283 3,000 -48 Descending Cleveland Center
Thu 04:46:10 PM 40.8867 -81.6950 228° Southwest 202 232 3,000 -48 Level Cleveland Center
Thu 04:47:12 PM 40.8750 -81.7556 256° West 185 213 2,900 -435 Descending Cleveland Center
Thu 04:48:14 PM 40.8747 -81.8228 270° West 167 192 2,100 -484 Descending Cleveland Center
Thu 04:49:16 PM 40.8722 -81.8561 264° West 148 170 1,900 -194 Descending Cleveland Center

Login

Don't have an account? Register now (free) for customized features, flight alerts, and more!